createdAt,value
2023-01-06T00:00:12.215Z,9.13
2023-01-06T00:02:41.893Z,9.12
2023-01-06T00:05:11.490Z,9.15
2023-01-06T00:07:40.206Z,9.05
2023-01-06T00:10:10.326Z,9.10
2023-01-06T00:12:39.066Z,9.16
2023-01-06T00:15:08.929Z,9.14
2023-01-06T00:17:37.242Z,9.11
2023-01-06T00:20:08.521Z,9.02
2023-01-06T00:22:37.127Z,9.08
2023-01-06T00:25:07.128Z,8.98
2023-01-06T00:27:35.835Z,9.09
2023-01-06T00:30:04.413Z,9.07
2023-01-06T00:32:34.143Z,9.04
2023-01-06T00:35:03.067Z,9.05
2023-01-06T00:37:33.093Z,8.98
2023-01-06T00:40:02.146Z,8.79
2023-01-06T00:42:30.555Z,8.71
2023-01-06T00:44:59.475Z,8.69
2023-01-06T00:47:28.626Z,8.68
2023-01-06T00:49:56.945Z,8.62
2023-01-06T00:52:25.721Z,8.60
2023-01-06T00:54:55.415Z,8.56
2023-01-06T00:57:24.690Z,8.53
2023-01-06T00:59:53.587Z,8.58
2023-01-06T01:02:22.654Z,8.58
2023-01-06T01:04:51.710Z,8.51
2023-01-06T01:07:20.083Z,8.42
2023-01-06T01:09:48.660Z,8.55
2023-01-06T01:12:19.161Z,8.55
2023-01-06T01:14:49.168Z,8.61
2023-01-06T01:17:20.703Z,8.59
2023-01-06T01:19:50.698Z,8.60
2023-01-06T01:22:19.570Z,8.61
2023-01-06T01:24:47.937Z,8.65
2023-01-06T01:27:19.694Z,8.63
2023-01-06T01:29:48.035Z,8.56
2023-01-06T01:32:16.985Z,8.69
2023-01-06T01:34:45.801Z,8.72
2023-01-06T01:37:14.247Z,8.67
2023-01-06T01:39:43.500Z,8.67
2023-01-06T01:42:19.456Z,8.66
2023-01-06T01:45:04.202Z,8.67
2023-01-06T01:47:49.035Z,8.55
2023-01-06T01:50:32.081Z,8.66
2023-01-06T01:53:04.993Z,8.61
2023-01-06T01:55:35.286Z,8.55
2023-01-06T01:58:09.069Z,8.45
2023-01-06T02:00:41.367Z,8.45
2023-01-06T02:03:11.393Z,8.41
2023-01-06T02:05:45.204Z,8.41
2023-01-06T02:08:23.771Z,8.44
2023-01-06T02:10:53.033Z,8.43
2023-01-06T02:13:22.931Z,8.44
2023-01-06T02:16:01.539Z,8.43
2023-01-06T02:18:54.710Z,8.44
2023-01-06T02:21:38.638Z,8.43
2023-01-06T02:24:26.809Z,8.41
2023-01-06T02:27:35.304Z,8.42
2023-01-06T02:30:37.066Z,8.45
2023-01-06T02:33:16.063Z,8.33
2023-01-06T02:36:11.871Z,8.39
2023-01-06T02:38:56.097Z,8.36
2023-01-06T02:41:34.704Z,8.35
2023-01-06T02:44:14.352Z,8.44
2023-01-06T02:47:10.031Z,8.45
2023-01-06T02:49:48.365Z,8.45
2023-01-06T02:52:24.416Z,8.43
2023-01-06T02:54:58.259Z,8.39
2023-01-06T02:57:31.706Z,8.39
2023-01-06T03:00:07.798Z,8.32
2023-01-06T03:02:39.500Z,8.30
2023-01-06T03:05:13.166Z,8.24
2023-01-06T03:07:44.200Z,8.23
2023-01-06T03:10:16.357Z,8.29
2023-01-06T03:12:52.741Z,8.20
2023-01-06T03:15:22.790Z,8.19
2023-01-06T03:17:51.693Z,8.19
2023-01-06T03:20:23.011Z,8.18
2023-01-06T03:22:51.367Z,8.19
2023-01-06T03:25:20.681Z,8.16
2023-01-06T03:27:50.500Z,8.11
2023-01-06T03:30:20.669Z,8.11
2023-01-06T03:33:00.069Z,8.04
2023-01-06T03:35:48.718Z,8.02
2023-01-06T03:38:28.248Z,7.99
2023-01-06T03:41:03.694Z,7.92
2023-01-06T03:43:40.159Z,7.82
2023-01-06T03:46:22.619Z,7.64
2023-01-06T03:48:59.327Z,7.64
2023-01-06T03:51:45.619Z,7.67
2023-01-06T03:54:30.801Z,7.69
2023-01-06T03:57:06.563Z,7.67
2023-01-06T03:59:39.241Z,7.66
2023-01-06T04:02:09.869Z,7.68
2023-01-06T04:04:38.704Z,7.69
2023-01-06T04:07:09.756Z,7.67
2023-01-06T04:09:41.990Z,7.57
2023-01-06T04:12:27.550Z,7.54
2023-01-06T04:14:56.472Z,7.50
2023-01-06T04:17:24.896Z,7.47
2023-01-06T04:19:54.427Z,7.42
2023-01-06T04:22:24.705Z,7.32
2023-01-06T04:24:53.125Z,7.29
2023-01-06T04:27:21.595Z,7.31
2023-01-06T04:29:50.875Z,7.33
2023-01-06T04:32:19.440Z,7.28
2023-01-06T04:34:48.576Z,7.25
2023-01-06T04:37:17.664Z,7.22
2023-01-06T04:39:47.414Z,7.17
2023-01-06T04:42:16.871Z,7.12
2023-01-06T04:44:45.238Z,7.11
2023-01-06T04:47:14.260Z,7.09
2023-01-06T04:49:42.891Z,7.05
2023-01-06T04:52:11.561Z,7.10
2023-01-06T04:54:40.452Z,7.14
2023-01-06T04:57:10.137Z,7.12
2023-01-06T04:59:39.149Z,7.14
2023-01-06T05:02:07.547Z,6.99
2023-01-06T05:04:46.955Z,7.19
2023-01-06T05:07:16.327Z,7.25
2023-01-06T05:09:45.313Z,7.26
2023-01-06T05:12:15.010Z,7.24
2023-01-06T05:14:43.894Z,7.25
2023-01-06T05:17:12.626Z,7.26
2023-01-06T05:19:42.927Z,7.25
2023-01-06T05:22:12.343Z,7.28
2023-01-06T05:24:40.638Z,7.38
2023-01-06T05:27:09.872Z,7.34
2023-01-06T05:29:39.594Z,7.44
2023-01-06T05:32:08.796Z,7.47
2023-01-06T05:34:37.136Z,7.51
2023-01-06T05:37:06.317Z,7.56
2023-01-06T05:39:34.710Z,7.60
2023-01-06T05:42:04.006Z,7.56
2023-01-06T05:44:32.656Z,7.68
2023-01-06T05:47:03.251Z,7.45
2023-01-06T05:49:31.643Z,7.62
2023-01-06T05:52:00.072Z,7.74
2023-01-06T05:54:28.443Z,7.81
2023-01-06T05:56:57.876Z,7.83
2023-01-06T05:59:26.759Z,7.83
2023-01-06T06:01:55.333Z,7.81
2023-01-06T06:04:25.112Z,7.86
2023-01-06T06:06:53.740Z,7.84
2023-01-06T06:09:22.082Z,7.87
2023-01-06T06:11:51.919Z,7.86
2023-01-06T06:14:20.769Z,7.81
2023-01-06T06:16:49.231Z,7.84
2023-01-06T06:19:18.148Z,7.87
2023-01-06T06:21:47.841Z,7.90
2023-01-06T06:24:16.517Z,7.91
2023-01-06T06:26:45.605Z,7.89
2023-01-06T06:29:14.504Z,7.89
2023-01-06T06:31:44.164Z,7.78
2023-01-06T06:34:14.594Z,7.88
2023-01-06T06:36:43.502Z,7.90
2023-01-06T06:39:13.593Z,7.97
2023-01-06T06:41:42.139Z,7.98
2023-01-06T06:44:11.215Z,7.98
2023-01-06T06:46:40.107Z,7.99
2023-01-06T06:49:08.687Z,7.92
2023-01-06T06:51:37.966Z,7.91
2023-01-06T06:54:06.571Z,7.93
2023-01-06T06:56:37.151Z,7.97
2023-01-06T06:59:05.902Z,8.01
2023-01-06T07:01:35.404Z,8.04
2023-01-06T07:04:03.793Z,7.95
2023-01-06T07:06:33.185Z,7.93
2023-01-06T07:09:01.521Z,7.88
2023-01-06T07:11:30.915Z,7.88
2023-01-06T07:14:01.353Z,7.86
2023-01-06T07:16:30.831Z,7.82
2023-01-06T07:18:59.710Z,7.82
2023-01-06T07:21:28.020Z,7.85
2023-01-06T07:23:56.665Z,7.84
2023-01-06T07:26:25.015Z,7.85
2023-01-06T07:28:54.001Z,7.86
2023-01-06T07:31:23.824Z,7.83
2023-01-06T07:33:53.165Z,7.85
2023-01-06T07:36:21.983Z,7.89
2023-01-06T07:38:50.310Z,7.81
2023-01-06T07:41:19.192Z,7.76
2023-01-06T07:43:47.545Z,7.75
2023-01-06T07:46:16.641Z,7.69
2023-01-06T07:48:46.759Z,7.61
2023-01-06T07:51:15.524Z,7.65
2023-01-06T07:53:44.001Z,7.70
2023-01-06T07:56:13.189Z,7.75
2023-01-06T07:58:41.670Z,7.68
2023-01-06T08:01:10.458Z,7.73
2023-01-06T08:03:38.972Z,7.69
2023-01-06T08:06:10.687Z,7.77
2023-01-06T08:09:33.104Z,7.85
2023-01-06T08:12:07.112Z,7.59
2023-01-06T08:14:35.822Z,7.35
2023-01-06T08:17:04.622Z,7.80
2023-01-06T08:19:33.610Z,7.90
2023-01-06T08:22:03.886Z,7.60
2023-01-06T08:24:32.784Z,7.75
2023-01-06T08:27:01.653Z,7.93
2023-01-06T08:29:37.474Z,8.03
2023-01-06T08:32:12.050Z,8.00
2023-01-06T08:34:42.338Z,8.32
2023-01-06T08:37:14.401Z,8.34
2023-01-06T08:39:43.023Z,9.02
2023-01-06T08:42:11.803Z,8.58
2023-01-06T08:45:03.246Z,9.18
2023-01-06T08:48:12.931Z,9.64
2023-01-06T08:54:32.524Z,10.00
2023-01-06T08:57:34.211Z,10.36
2023-01-06T09:00:28.062Z,10.42
2023-01-06T09:03:17.499Z,10.69
2023-01-06T09:06:19.045Z,10.70
2023-01-06T09:08:48.623Z,11.06
2023-01-06T09:11:18.975Z,11.26
2023-01-06T09:13:48.382Z,11.18
2023-01-06T09:16:31.093Z,11.62
2023-01-06T09:19:11.077Z,11.47
2023-01-06T09:24:50.345Z,11.75
2023-01-06T09:28:34.958Z,11.72
2023-01-06T09:31:03.643Z,12.34
2023-01-06T09:41:46.098Z,12.10
2023-01-06T09:44:23.963Z,12.01
2023-01-06T09:47:07.021Z,12.06
2023-01-06T10:08:05.547Z,12.11
2023-01-06T10:18:52.617Z,12.60
2023-01-06T10:29:06.269Z,12.65
2023-01-06T11:00:56.549Z,14.50
2023-01-06T11:07:37.498Z,14.23
2023-01-06T11:59:35.635Z,15.29
2023-01-06T12:11:45.254Z,13.98
2023-01-06T12:15:18.514Z,13.76
2023-01-06T12:30:53.142Z,12.68
2023-01-06T12:34:03.115Z,12.53
2023-01-06T12:37:18.091Z,12.86
2023-01-06T12:40:32.920Z,12.72
2023-01-06T12:43:58.034Z,12.38
2023-01-06T12:47:29.775Z,12.48
2023-01-06T12:51:34.197Z,12.42
2023-01-06T12:54:30.340Z,12.02
2023-01-06T13:01:16.980Z,11.92
2023-01-06T13:08:05.075Z,11.70
2023-01-06T13:18:17.272Z,11.53
2023-01-06T13:26:08.514Z,11.79
2023-01-06T13:45:04.440Z,11.54
2023-01-06T13:48:29.063Z,11.04
2023-01-06T13:56:27.257Z,11.36
2023-01-06T13:59:33.251Z,11.35
2023-01-06T14:02:55.729Z,11.28
2023-01-06T14:09:47.098Z,11.11
2023-01-06T14:12:23.608Z,11.04
2023-01-06T14:15:01.337Z,11.10
2023-01-06T14:17:33.340Z,10.90
2023-01-06T14:20:07.050Z,10.93
2023-01-06T14:22:36.759Z,10.74
2023-01-06T14:25:09.243Z,11.03
2023-01-06T14:28:09.041Z,11.01
2023-01-06T14:30:38.436Z,10.71
2023-01-06T14:33:31.393Z,10.55
2023-01-06T14:36:05.576Z,10.76
2023-01-06T14:38:42.343Z,10.68
2023-01-06T14:41:21.543Z,10.99
2023-01-06T14:44:08.697Z,10.97
2023-01-06T14:46:42.917Z,10.76
2023-01-06T14:49:18.131Z,11.00
2023-01-06T14:51:48.401Z,11.01
2023-01-06T14:54:23.069Z,11.00
2023-01-06T14:56:55.887Z,10.98
2023-01-06T14:59:28.553Z,10.52
2023-01-06T15:02:02.612Z,10.68
2023-01-06T15:04:33.958Z,10.76
2023-01-06T15:07:15.938Z,10.81
2023-01-06T15:09:50.242Z,10.45
2023-01-06T15:12:29.044Z,10.27
2023-01-06T15:15:20.520Z,10.63
2023-01-06T15:17:49.307Z,10.71
2023-01-06T15:20:18.398Z,10.34
2023-01-06T15:22:53.641Z,10.18
2023-01-06T15:25:27.503Z,10.37
2023-01-06T15:30:51.304Z,10.23
2023-01-06T15:33:20.735Z,10.17
2023-01-06T15:35:51.853Z,10.40
2023-01-06T15:38:26.274Z,10.47
2023-01-06T15:40:55.275Z,10.33
2023-01-06T15:43:26.842Z,10.46
2023-01-06T15:46:04.526Z,10.32
2023-01-06T15:48:35.290Z,10.42
2023-01-06T15:51:12.124Z,10.43
2023-01-06T15:53:40.714Z,10.44
2023-01-06T15:56:19.312Z,10.25
2023-01-06T15:58:50.838Z,10.55
2023-01-06T16:01:23.398Z,10.53
2023-01-06T16:03:54.135Z,10.54
2023-01-06T16:06:27.074Z,10.49
2023-01-06T16:09:16.170Z,10.42
2023-01-06T16:11:59.173Z,10.43
2023-01-06T16:14:32.760Z,10.29
2023-01-06T16:17:07.937Z,10.54
2023-01-06T16:19:39.073Z,10.55
2023-01-06T16:22:18.538Z,10.28
2023-01-06T16:24:54.798Z,10.58
2023-01-06T16:27:26.422Z,10.62
2023-01-06T16:30:11.337Z,10.61
2023-01-06T16:32:41.841Z,10.60
2023-01-06T16:35:13.718Z,10.61
2023-01-06T16:37:42.211Z,10.62
2023-01-06T16:40:13.116Z,10.62
2023-01-06T16:42:44.812Z,10.79
2023-01-06T16:45:17.579Z,10.68
2023-01-06T16:47:46.588Z,10.81
2023-01-06T16:50:19.795Z,10.76
2023-01-06T16:52:53.673Z,10.77
2023-01-06T16:55:24.650Z,10.33
2023-01-06T16:57:55.576Z,10.40
2023-01-06T17:00:25.006Z,10.47
2023-01-06T17:02:55.412Z,10.18
2023-01-06T17:05:28.230Z,10.11
2023-01-06T17:07:59.643Z,10.62
2023-01-06T17:10:29.456Z,10.47
2023-01-06T17:13:20.492Z,10.20
2023-01-06T17:15:52.845Z,10.66
2023-01-06T17:18:24.794Z,10.39
2023-01-06T17:21:00.444Z,10.55
2023-01-06T17:23:29.007Z,10.51
2023-01-06T17:26:03.518Z,10.48
2023-01-06T17:28:33.597Z,10.23
2023-01-06T17:31:03.233Z,10.20
2023-01-06T17:33:32.630Z,10.05
2023-01-06T17:36:02.984Z,10.15
2023-01-06T17:38:32.639Z,10.40
2023-01-06T17:41:01.094Z,10.12
2023-01-06T17:43:34.054Z,10.39
2023-01-06T17:46:16.528Z,10.46
2023-01-06T17:48:45.629Z,10.30
2023-01-06T17:51:16.916Z,10.04
2023-01-06T17:54:03.034Z,10.05
2023-01-06T17:56:33.273Z,10.27
2023-01-06T17:59:12.277Z,10.05
2023-01-06T18:01:43.191Z,9.87
2023-01-06T18:04:15.479Z,10.27
2023-01-06T18:06:53.041Z,10.06
2023-01-06T18:09:25.529Z,10.08
2023-01-06T18:11:59.259Z,10.10
2023-01-06T18:14:33.572Z,9.74
2023-01-06T18:17:18.065Z,10.25
2023-01-06T18:19:46.678Z,10.25
2023-01-06T18:22:18.819Z,10.18
2023-01-06T18:24:48.794Z,9.85
2023-01-06T18:27:25.213Z,9.98
2023-01-06T18:29:53.959Z,10.06
2023-01-06T18:32:32.891Z,9.99
2023-01-06T18:35:03.587Z,9.65
2023-01-06T18:37:34.581Z,9.86
2023-01-06T18:40:05.893Z,9.74
2023-01-06T18:42:39.049Z,9.61
2023-01-06T18:45:19.566Z,9.68
2023-01-06T18:47:53.885Z,9.73
2023-01-06T18:50:32.552Z,9.46
2023-01-06T18:53:06.887Z,9.97
2023-01-06T18:55:38.871Z,9.93
2023-01-06T18:58:23.731Z,9.60
2023-01-06T19:00:54.770Z,10.00
2023-01-06T19:03:35.981Z,10.00
2023-01-06T19:06:34.744Z,9.94
2023-01-06T19:09:11.333Z,9.57
2023-01-06T19:11:41.603Z,9.91
2023-01-06T19:14:17.713Z,9.95
2023-01-06T19:16:52.752Z,9.75
2023-01-06T19:19:27.908Z,10.09
2023-01-06T19:22:11.483Z,10.08
2023-01-06T19:24:44.345Z,9.81
2023-01-06T19:27:33.927Z,9.87
2023-01-06T19:30:35.469Z,9.98
2023-01-06T19:33:25.204Z,10.03
2023-01-06T19:36:04.020Z,9.95
2023-01-06T19:38:37.476Z,9.76
2023-01-06T19:41:11.455Z,9.78
2023-01-06T19:43:40.003Z,10.07
2023-01-06T19:46:19.900Z,9.83
2023-01-06T19:48:48.507Z,9.87
2023-01-06T19:51:30.578Z,10.07
2023-01-06T19:54:01.192Z,9.97
2023-01-06T19:56:35.649Z,10.11
2023-01-06T19:59:10.633Z,9.86
2023-01-06T20:01:40.374Z,10.03
2023-01-06T20:04:21.067Z,9.79
2023-01-06T20:06:51.631Z,10.15
2023-01-06T20:09:22.167Z,9.78
2023-01-06T20:11:53.603Z,9.75
2023-01-06T20:14:22.744Z,9.74
2023-01-06T20:16:52.684Z,9.75
2023-01-06T20:19:22.005Z,10.00
2023-01-06T20:21:52.597Z,10.09
2023-01-06T20:24:21.150Z,10.15
2023-01-06T20:26:51.052Z,10.17
2023-01-06T20:29:20.033Z,10.14
2023-01-06T20:31:49.219Z,9.66
2023-01-06T20:34:18.181Z,9.78
2023-01-06T20:36:46.738Z,10.05
2023-01-06T20:39:16.836Z,10.11
2023-01-06T20:41:45.448Z,10.10
2023-01-06T20:44:14.842Z,9.88
2023-01-06T20:46:43.608Z,10.15
2023-01-06T20:49:13.130Z,9.87
2023-01-06T20:51:42.770Z,9.97
2023-01-06T20:54:11.344Z,10.16
2023-01-06T20:56:42.922Z,10.07
2023-01-06T20:59:12.809Z,10.10
2023-01-06T21:01:41.555Z,9.94
2023-01-06T21:04:10.871Z,10.18
2023-01-06T21:06:39.819Z,10.06
2023-01-06T21:09:08.447Z,9.72
2023-01-06T21:11:37.638Z,10.08
2023-01-06T21:14:07.937Z,10.08
2023-01-06T21:16:37.255Z,9.85
2023-01-06T21:19:05.593Z,9.97
2023-01-06T21:21:34.357Z,9.97
2023-01-06T21:24:03.241Z,10.24
2023-01-06T21:26:31.565Z,10.12
2023-01-06T21:29:00.516Z,10.42
2023-01-06T21:31:30.179Z,10.46
2023-01-06T21:33:58.799Z,10.46
2023-01-06T21:36:27.601Z,10.56
2023-01-06T21:38:56.073Z,10.61
2023-01-06T21:41:42.335Z,10.65
2023-01-06T21:44:10.730Z,10.68
2023-01-06T21:46:41.238Z,10.66
2023-01-06T21:49:09.720Z,10.19
2023-01-06T21:51:39.498Z,10.33
2023-01-06T21:54:07.918Z,10.41
2023-01-06T21:56:36.973Z,10.34
2023-01-06T21:59:05.694Z,10.41
2023-01-06T22:01:34.634Z,10.49
2023-01-06T22:04:05.168Z,10.57
2023-01-06T22:06:35.790Z,10.40
2023-01-06T22:09:07.968Z,10.55
2023-01-06T22:11:39.246Z,10.67
2023-01-06T22:14:10.080Z,10.55
2023-01-06T22:16:40.424Z,10.48
2023-01-06T22:19:13.245Z,10.19
2023-01-06T22:21:44.051Z,10.40
2023-01-06T22:24:16.104Z,10.05
2023-01-06T22:26:44.498Z,10.36
2023-01-06T22:29:12.863Z,10.09
2023-01-06T22:31:41.544Z,10.36
2023-01-06T22:34:11.766Z,10.48
2023-01-06T22:36:40.091Z,10.47
2023-01-06T22:39:09.190Z,10.55
2023-01-06T22:41:37.726Z,10.57
2023-01-06T22:44:06.482Z,10.55
2023-01-06T22:46:34.891Z,10.43
2023-01-06T22:49:03.787Z,10.44
2023-01-06T22:51:33.501Z,10.47
2023-01-06T22:54:02.428Z,10.43
2023-01-06T22:56:31.065Z,10.26
2023-01-06T22:59:01.138Z,10.43
2023-01-06T23:01:29.927Z,10.30
2023-01-06T23:04:00.177Z,10.15
2023-01-06T23:06:29.438Z,10.10
2023-01-06T23:09:01.059Z,10.26
2023-01-06T23:11:32.896Z,10.34
2023-01-06T23:14:02.624Z,10.38
2023-01-06T23:16:31.087Z,10.33
2023-01-06T23:19:00.399Z,10.15
2023-01-06T23:21:31.252Z,10.31
2023-01-06T23:24:04.763Z,10.32
2023-01-06T23:26:35.307Z,10.41
2023-01-06T23:29:03.912Z,10.37
2023-01-06T23:31:36.446Z,10.38
2023-01-06T23:34:07.884Z,10.39
2023-01-06T23:36:38.233Z,10.42
2023-01-06T23:39:12.569Z,10.29
2023-01-06T23:41:41.522Z,10.43
2023-01-06T23:44:16.112Z,10.28
2023-01-06T23:46:45.664Z,10.34
2023-01-06T23:49:17.164Z,10.36
2023-01-06T23:51:45.978Z,10.32
2023-01-06T23:54:17.654Z,10.22
2023-01-06T23:56:46.349Z,9.92
2023-01-06T23:59:15.228Z,10.30
